Time;durP1;ratioP1;P1;durP2;ratioP2;P2;SDS_P1;SDS_P2;PMS_P1;PMS_P2;Temp;Humidity;BMP_temperature;BMP_pressure;BME280_temperature;BME280_humidity;BME280_pressure;Samples;Min_cycle;Max_cycle;Signal;HPM_P1;HPM_P2
2022/07/28 00:01:53;;;;;;;6.20;1.80;;;22.60;67.70;;;;;;6991203;28;20513;-79
2022/07/28 00:05:15;;;;;;;5.85;2.08;;;22.00;70.30;;;;;;6987181;28;20932;-79
2022/07/28 00:08:37;;;;;;;4.78;1.80;;;22.20;71.40;;;;;;6989721;28;20440;-78
2022/07/28 00:11:59;;;;;;;5.35;2.00;;;22.20;71.70;;;;;;6976438;28;20436;-78
2022/07/28 00:15:21;;;;;;;5.15;2.05;;;22.20;71.90;;;;;;6987392;28;20606;-79
2022/07/28 00:18:45;;;;;;;4.40;2.00;;;22.20;72.50;;;;;;6990125;28;20505;-79
2022/07/28 00:22:07;;;;;;;4.45;1.80;;;21.80;72.60;;;;;;6986762;28;20438;-79
2022/07/28 00:25:29;;;;;;;5.03;1.90;;;22.00;72.50;;;;;;6983480;28;20449;-80
2022/07/28 00:28:51;;;;;;;6.50;1.90;;;22.20;71.60;;;;;;6989535;28;20466;-79
2022/07/28 00:32:15;;;;;;;4.78;1.95;;;22.20;70.60;;;;;;6980398;28;20438;-80
2022/07/28 00:35:38;;;;;;;5.55;2.00;;;22.10;70.20;;;;;;6983664;28;20429;-79
2022/07/28 00:39:00;;;;;;;4.70;2.07;;;21.80;72.10;;;;;;6979576;28;20444;-78
2022/07/28 00:42:22;;;;;;;5.85;2.17;;;21.80;73.40;;;;;;6987182;28;21686;-79
2022/07/28 00:45:45;;;;;;;6.35;2.10;;;21.80;73.20;;;;;;6996957;28;20477;-79
2022/07/28 00:49:07;;;;;;;6.05;2.00;;;21.80;73.70;;;;;;6990436;28;20440;-80
2022/07/28 00:52:30;;;;;;;4.90;2.05;;;21.80;73.80;;;;;;6994424;28;20443;-80
2022/07/28 00:55:52;;;;;;;4.13;1.90;;;21.80;74.00;;;;;;6992127;28;20876;-79
2022/07/28 00:59:14;;;;;;;6.35;2.20;;;21.80;73.10;;;;;;6988805;28;20843;-79
2022/07/28 01:02:37;;;;;;;6.05;2.10;;;21.70;73.30;;;;;;6998152;28;20474;-79
2022/07/28 01:06:07;;;;;;;5.15;2.10;;;21.50;72.60;;;;;;6998131;28;20470;-79
2022/07/28 01:09:47;;;;;;;5.93;2.00;;;21.60;74.10;;;;;;6994710;28;20933;-79
2022/07/28 01:13:15;;;;;;;5.45;2.10;;;21.60;72.80;;;;;;6993772;28;20454;-79
2022/07/28 01:16:45;;;;;;;5.70;2.05;;;21.50;74.40;;;;;;6983836;28;20430;-79
2022/07/28 01:20:13;;;;;;;5.38;2.10;;;21.50;74.20;;;;;;6996172;28;20928;-80
2022/07/28 01:24:14;;;;;;;4.35;2.20;;;21.40;74.90;;;;;;6991624;28;20438;-79
2022/07/28 01:27:54;;;;;;;4.68;2.00;;;21.40;75.00;;;;;;6985630;28;20435;-79
2022/07/28 01:31:25;;;;;;;4.78;2.20;;;21.40;74.90;;;;;;6995065;28;20826;-80
2022/07/28 01:34:56;;;;;;;4.60;2.10;;;21.30;75.20;;;;;;6997704;28;20939;-81
2022/07/28 01:38:20;;;;;;;4.63;2.10;;;21.30;75.50;;;;;;6988978;28;20440;-79
2022/07/28 01:41:44;;;;;;;4.60;1.90;;;21.30;75.20;;;;;;6987198;28;20427;-79
2022/07/28 01:45:08;;;;;;;5.68;2.28;;;21.20;75.10;;;;;;6995438;28;20471;-80
2022/07/28 01:48:34;;;;;;;5.82;2.10;;;21.10;75.00;;;;;;6998264;28;20468;-79
2022/07/28 01:51:58;;;;;;;5.63;2.30;;;21.10;73.60;;;;;;6996698;28;20909;-81
2022/07/28 01:55:22;;;;;;;5.50;2.20;;;21.00;73.40;;;;;;6995418;28;20439;-80
2022/07/28 01:58:45;;;;;;;7.50;2.40;;;20.80;76.80;;;;;;6996353;28;20429;-79
2022/07/28 02:02:09;;;;;;;5.70;2.20;;;20.80;75.30;;;;;;6999479;28;20435;-82
2022/07/28 02:05:35;;;;;;;5.32;2.33;;;20.70;76.60;;;;;;6990218;28;20444;-80
2022/07/28 02:09:00;;;;;;;4.97;2.28;;;20.70;76.80;;;;;;6988846;28;20435;-79
2022/07/28 02:12:23;;;;;;;5.43;2.20;;;20.80;77.70;;;;;;6990701;28;20472;-79
2022/07/28 02:15:45;;;;;;;5.22;2.00;;;20.80;77.50;;;;;;6992792;28;21107;-79
2022/07/28 02:19:08;;;;;;;3.67;2.10;;;20.70;77.70;;;;;;6990504;28;20442;-80
2022/07/28 02:22:34;;;;;;;4.50;2.15;;;20.80;78.30;;;;;;6986128;28;20915;-80
2022/07/28 02:26:01;;;;;;;6.30;2.30;;;20.80;77.80;;;;;;6991980;28;20471;-79
2022/07/28 02:29:25;;;;;;;5.88;2.25;;;20.70;78.00;;;;;;6990599;28;20448;-80
2022/07/28 02:32:52;;;;;;;4.65;2.17;;;20.70;78.30;;;;;;6992027;28;20435;-79
2022/07/28 02:36:21;;;;;;;5.80;2.00;;;20.70;78.50;;;;;;6989124;28;20540;-77
2022/07/28 02:39:51;;;;;;;5.27;2.20;;;20.70;78.50;;;;;;6988344;28;20914;-79
2022/07/28 02:43:17;;;;;;;4.53;2.10;;;20.60;78.10;;;;;;6989869;28;20474;-78
2022/07/28 02:46:44;;;;;;;4.90;2.30;;;20.50;78.70;;;;;;6993019;28;20440;-78
2022/07/28 02:50:07;;;;;;;5.90;2.30;;;20.60;78.40;;;;;;6998129;28;20427;-81
2022/07/28 02:53:31;;;;;;;5.33;2.30;;;20.50;78.50;;;;;;6986330;28;20472;-80
2022/07/28 02:56:56;;;;;;;4.85;2.45;;;20.40;79.00;;;;;;6999653;28;20432;-80
2022/07/28 03:00:19;;;;;;;5.40;2.30;;;20.40;79.00;;;;;;6989473;28;20443;-81
2022/07/28 03:03:41;;;;;;;5.18;2.30;;;20.40;79.30;;;;;;6984735;28;20427;-79
2022/07/28 03:07:03;;;;;;;4.80;2.50;;;20.40;79.20;;;;;;6991764;28;20478;-82
2022/07/28 03:10:27;;;;;;;4.43;2.50;;;20.30;79.20;;;;;;6987935;28;20448;-83
2022/07/28 03:13:50;;;;;;;4.70;2.35;;;20.10;80.90;;;;;;6984657;28;20893;-81
2022/07/28 03:17:13;;;;;;;5.97;2.60;;;20.20;80.10;;;;;;6981629;28;20509;-80
2022/07/28 03:20:35;;;;;;;6.40;2.58;;;20.20;80.00;;;;;;6984053;28;20468;-80
2022/07/28 03:23:57;;;;;;;4.85;2.35;;;20.10;80.40;;;;;;6987776;28;20920;-80
2022/07/28 03:27:26;;;;;;;6.47;2.53;;;20.10;81.10;;;;;;6987780;28;20435;-79
2022/07/28 03:30:57;;;;;;;5.15;2.58;;;20.10;80.30;;;;;;6989493;28;20945;-80
2022/07/28 03:34:19;;;;;;;5.75;2.85;;;20.10;80.70;;;;;;6988651;28;20431;-80
2022/07/28 03:37:52;;;;;;;4.78;2.45;;;20.10;80.70;;;;;;6990181;28;20435;-81
2022/07/28 03:41:16;;;;;;;5.40;2.30;;;20.10;80.30;;;;;;6976708;28;20484;-80
2022/07/28 03:44:39;;;;;;;5.35;2.63;;;20.10;80.30;;;;;;6981290;28;20436;-80
2022/07/28 03:48:03;;;;;;;5.18;2.72;;;20.00;80.30;;;;;;6969438;28;20425;-80
2022/07/28 03:51:28;;;;;;;4.78;2.47;;;20.00;80.30;;;;;;6977023;28;20420;-81
2022/07/28 03:54:50;;;;;;;5.95;2.55;;;20.00;80.50;;;;;;6997050;28;20928;-80
2022/07/28 03:58:12;;;;;;;6.07;2.70;;;20.00;80.60;;;;;;6995073;28;20462;-81
2022/07/28 04:01:34;;;;;;;6.22;2.60;;;20.00;80.30;;;;;;6969155;28;20425;-80
2022/07/28 04:04:58;;;;;;;6.22;2.40;;;20.00;80.30;;;;;;6968889;28;20428;-81
2022/07/28 04:08:20;;;;;;;5.28;2.53;;;20.00;80.50;;;;;;6969130;28;20425;-82
2022/07/28 04:11:42;;;;;;;5.10;2.60;;;19.80;80.70;;;;;;6969277;28;20506;-80
2022/07/28 04:15:12;;;;;;;5.90;2.53;;;19.80;81.20;;;;;;6988868;28;20427;-80
2022/07/28 04:18:34;;;;;;;7.45;2.47;;;19.70;81.80;;;;;;6995937;28;20470;-79
2022/07/28 04:21:57;;;;;;;5.68;2.67;;;19.70;82.40;;;;;;6996137;28;20447;-81
2022/07/28 04:25:24;;;;;;;5.50;2.80;;;19.60;82.70;;;;;;6996113;28;20810;-80
2022/07/28 04:28:47;;;;;;;4.85;2.75;;;19.30;83.40;;;;;;6995625;28;20434;-81
2022/07/28 04:32:09;;;;;;;5.83;2.80;;;19.10;83.40;;;;;;6996600;28;20423;-83
2022/07/28 04:35:33;;;;;;;6.45;2.80;;;19.10;83.70;;;;;;6992759;28;20437;-82
2022/07/28 04:38:58;;;;;;;6.57;2.80;;;19.10;84.00;;;;;;6973724;28;20428;-81
2022/07/28 04:42:20;;;;;;;4.57;2.80;;;19.10;83.90;;;;;;6970752;28;20461;-81
2022/07/28 04:45:42;;;;;;;5.03;2.93;;;19.20;84.40;;;;;;6983148;28;20436;-81
2022/07/28 04:49:04;;;;;;;5.53;2.90;;;19.10;84.60;;;;;;6986654;28;20795;-82
2022/07/28 04:52:26;;;;;;;4.60;2.50;;;19.20;85.30;;;;;;6969195;28;20779;-81
2022/07/28 04:55:50;;;;;;;5.40;2.70;;;19.30;85.20;;;;;;6974979;28;20428;-81
2022/07/28 04:59:14;;;;;;;5.47;2.60;;;19.40;85.30;;;;;;6996169;28;20569;-81
2022/07/28 05:02:36;;;;;;;6.70;2.67;;;19.50;84.60;;;;;;6973918;28;20835;-81
2022/07/28 05:05:58;;;;;;;6.03;2.70;;;19.50;84.70;;;;;;6989950;28;20897;-80
2022/07/28 05:09:21;;;;;;;6.38;3.08;;;19.50;84.30;;;;;;6995762;28;20793;-80
2022/07/28 05:12:46;;;;;;;6.80;3.00;;;19.70;84.40;;;;;;6995595;28;20450;-80
2022/07/28 05:16:08;;;;;;;5.40;2.60;;;19.70;83.80;;;;;;6994094;28;20448;-81
2022/07/28 05:19:30;;;;;;;5.17;2.80;;;19.80;83.80;;;;;;6995385;28;20430;-81
2022/07/28 05:22:53;;;;;;;6.45;2.88;;;19.80;83.30;;;;;;6996099;28;20424;-81
2022/07/28 05:26:15;;;;;;;4.90;2.70;;;19.90;83.30;;;;;;6997057;28;20439;-81
2022/07/28 05:29:40;;;;;;;6.05;2.83;;;19.90;83.70;;;;;;6993538;28;20943;-81
2022/07/28 05:33:02;;;;;;;5.47;2.70;;;19.90;83.70;;;;;;6999912;28;20484;-81
2022/07/28 05:36:24;;;;;;;7.47;3.05;;;19.90;83.40;;;;;;7000372;28;20439;-80
2022/07/28 05:39:46;;;;;;;6.53;2.90;;;19.80;82.40;;;;;;7000497;28;20545;-81
2022/07/28 05:43:08;;;;;;;6.53;2.80;;;19.80;82.40;;;;;;7000714;28;20498;-81
2022/07/28 05:46:32;;;;;;;6.95;3.00;;;19.90;81.00;;;;;;6975938;28;20445;-82
2022/07/28 05:49:58;;;;;;;6.72;2.72;;;19.90;81.40;;;;;;6973550;28;20425;-80
2022/07/28 05:53:21;;;;;;;5.13;2.80;;;19.90;80.90;;;;;;6977560;28;20795;-84
2022/07/28 05:56:43;;;;;;;5.35;2.80;;;19.90;81.30;;;;;;6975741;28;20811;-82
2022/07/28 06:00:07;;;;;;;8.80;3.30;;;19.90;80.90;;;;;;6981321;28;20465;-81
2022/07/28 06:03:33;;;;;;;6.80;3.23;;;19.90;81.50;;;;;;6975545;28;20772;-81
2022/07/28 06:06:56;;;;;;;7.95;3.20;;;19.90;81.10;;;;;;6975325;28;20440;-79
2022/07/28 06:10:23;;;;;;;6.13;3.15;;;20.00;81.20;;;;;;6972264;28;20828;-80
2022/07/28 06:13:46;;;;;;;7.13;3.60;;;20.00;81.50;;;;;;6971912;28;20429;-80
2022/07/28 06:17:08;;;;;;;9.90;3.40;;;20.10;81.40;;;;;;6972067;28;20429;-74
2022/07/28 06:20:31;;;;;;;6.45;3.42;;;20.10;81.90;;;;;;6972420;28;20429;-75
2022/07/28 06:23:53;;;;;;;8.23;3.50;;;20.30;81.70;;;;;;6971232;28;20468;-75
2022/07/28 06:27:15;;;;;;;7.38;3.42;;;20.60;82.00;;;;;;6972812;28;20441;-77
2022/07/28 06:30:37;;;;;;;6.13;3.15;;;20.60;81.50;;;;;;6973811;28;20429;-74
2022/07/28 06:34:01;;;;;;;6.97;3.40;;;20.70;81.60;;;;;;6984570;28;20423;-75
2022/07/28 06:37:25;;;;;;;7.33;3.20;;;20.80;80.20;;;;;;6998492;28;20435;-76
2022/07/28 06:40:47;;;;;;;7.78;3.80;;;20.90;81.00;;;;;;6984150;28;20487;-75
2022/07/28 06:44:09;;;;;;;7.75;3.60;;;20.70;80.50;;;;;;6971178;28;20429;-74
2022/07/28 06:47:31;;;;;;;6.28;3.70;;;20.90;81.20;;;;;;6972730;28;20437;-76
2022/07/28 06:50:53;;;;;;;6.45;3.70;;;21.00;80.40;;;;;;6970573;28;20436;-75
2022/07/28 06:54:17;;;;;;;8.27;3.60;;;21.10;80.60;;;;;;6970685;28;20437;-80
2022/07/28 06:57:39;;;;;;;7.18;4.07;;;21.10;81.10;;;;;;6970914;28;20567;-82
2022/07/28 07:01:06;;;;;;;8.45;3.95;;;21.00;81.60;;;;;;6970480;28;20433;-83
2022/07/28 07:04:28;;;;;;;9.07;4.10;;;21.10;81.80;;;;;;6970357;28;21041;-81
2022/07/28 07:07:50;;;;;;;7.22;3.78;;;21.20;82.00;;;;;;6975192;28;20444;-79
2022/07/28 07:11:13;;;;;;;8.33;4.30;;;21.20;82.10;;;;;;6997677;28;20432;-80
2022/07/28 07:14:35;;;;;;;8.23;4.43;;;21.00;82.70;;;;;;6956258;28;21047;-81
2022/07/28 07:17:57;;;;;;;9.25;4.45;;;21.10;82.80;;;;;;6956109;28;20455;-83
2022/07/28 07:21:20;;;;;;;7.53;4.73;;;21.30;82.90;;;;;;6968679;28;20930;-79
2022/07/28 07:24:42;;;;;;;8.73;4.80;;;21.40;83.00;;;;;;6969573;28;20482;-80
2022/07/28 07:28:05;;;;;;;8.05;4.45;;;21.50;83.10;;;;;;6969200;28;20982;-77
2022/07/28 07:31:28;;;;;;;8.45;4.80;;;21.60;83.00;;;;;;6985500;28;20429;-79
2022/07/28 07:34:50;;;;;;;8.80;5.38;;;21.70;82.50;;;;;;6981854;28;20421;-80
2022/07/28 07:38:12;;;;;;;8.70;5.20;;;21.70;82.60;;;;;;6968637;28;20437;-82
2022/07/28 07:41:34;;;;;;;7.55;4.95;;;21.70;82.80;;;;;;6971667;28;20433;-81
2022/07/28 07:44:58;;;;;;;7.82;5.20;;;21.80;83.50;;;;;;6984624;28;20433;-81
2022/07/28 07:48:20;;;;;;;8.88;5.57;;;21.80;83.50;;;;;;6995517;28;20420;-80
2022/07/28 07:51:42;;;;;;;11.15;5.80;;;21.90;83.30;;;;;;7005938;28;20793;-82
2022/07/28 07:55:05;;;;;;;8.23;5.60;;;21.90;83.70;;;;;;6996138;28;20419;-81
2022/07/28 07:58:27;;;;;;;9.43;6.07;;;21.90;83.90;;;;;;6997682;28;20438;-80
2022/07/28 08:01:53;;;;;;;10.25;5.70;;;22.00;84.00;;;;;;6995469;28;20858;-81
2022/07/28 08:05:17;;;;;;;8.57;5.65;;;22.00;84.00;;;;;;7016500;28;20431;-80
2022/07/28 08:08:39;;;;;;;10.65;6.00;;;22.10;83.60;;;;;;6998936;28;20441;-83
2022/07/28 08:12:01;;;;;;;9.00;6.30;;;22.10;84.10;;;;;;6974462;28;20442;-83
2022/07/28 08:15:23;;;;;;;8.57;6.10;;;22.00;84.10;;;;;;6975296;28;20440;-85
2022/07/28 08:18:47;;;;;;;10.35;6.32;;;22.20;83.80;;;;;;6984902;28;20444;-82
2022/07/28 08:22:09;;;;;;;9.38;6.10;;;22.30;84.20;;;;;;6981328;28;20427;-81
2022/07/28 08:25:31;;;;;;;10.18;6.40;;;22.30;84.70;;;;;;6997632;28;20450;-85
2022/07/28 08:28:53;;;;;;;9.75;6.10;;;22.50;84.30;;;;;;6998261;28;20427;-82
2022/07/28 08:32:15;;;;;;;9.48;6.20;;;22.60;83.70;;;;;;7000573;28;20423;-81
2022/07/28 08:35:40;;;;;;;10.15;6.35;;;22.80;86.20;;;;;;6985108;28;20437;-82
2022/07/28 08:39:02;;;;;;;10.57;6.90;;;22.90;85.20;;;;;;6968793;28;20554;-83
2022/07/28 08:42:34;;;;;;;9.55;6.68;;;23.00;85.00;;;;;;6996207;28;20431;-86
2022/07/28 08:45:59;;;;;;;8.52;5.80;;;23.00;83.60;;;;;;6996070;28;20439;-85
2022/07/28 08:49:22;;;;;;;8.52;6.00;;;23.10;84.20;;;;;;6996294;28;20428;-84
2022/07/28 08:52:49;;;;;;;9.60;5.68;;;23.20;83.60;;;;;;7012076;28;20403;-84
2022/07/28 08:56:15;;;;;;;9.20;6.47;;;23.30;83.90;;;;;;7010585;28;20431;-82
2022/07/28 08:59:38;;;;;;;8.63;6.03;;;23.40;83.60;;;;;;7004890;28;20435;-80
2022/07/28 09:03:03;;;;;;;36.10;12.40;;;23.40;82.90;;;;;;6996071;28;20437;-84
2022/07/28 09:06:26;;;;;;;12.60;7.18;;;23.50;83.00;;;;;;6974693;28;20425;-83
2022/07/28 09:09:50;;;;;;;14.10;7.68;;;23.60;82.60;;;;;;6976467;28;20429;-84
2022/07/28 09:13:12;;;;;;;9.40;6.13;;;23.70;82.50;;;;;;6978704;28;20421;-83
2022/07/28 09:16:34;;;;;;;10.60;6.20;;;23.80;81.90;;;;;;6970437;28;20422;-80
2022/07/28 09:19:57;;;;;;;10.98;6.45;;;23.80;82.30;;;;;;6982411;28;20905;-85
2022/07/28 09:23:19;;;;;;;7.80;5.35;;;23.90;81.70;;;;;;6988259;28;20441;-83
2022/07/28 09:27:01;;;;;;;11.15;5.65;;;24.00;81.70;;;;;;6973706;28;20436;-86
2022/07/28 09:30:31;;;;;;;8.85;5.75;;;24.10;81.00;;;;;;6973633;28;20471;-84
2022/07/28 09:33:57;;;;;;;7.75;5.40;;;24.20;80.60;;;;;;6972957;28;20433;-82
2022/07/28 09:37:20;;;;;;;8.77;5.60;;;24.30;81.00;;;;;;6971713;28;20444;-84
2022/07/28 09:40:44;;;;;;;8.70;5.20;;;24.40;80.90;;;;;;6972595;28;20447;-84
2022/07/28 09:44:18;;;;;;;7.68;5.32;;;24.60;80.40;;;;;;6973632;28;21037;-85
2022/07/28 09:47:40;;;;;;;8.82;5.07;;;24.60;80.10;;;;;;6965793;28;20804;-78
2022/07/28 09:51:13;;;;;;;7.53;4.68;;;24.70;79.60;;;;;;6990866;28;20427;-80
2022/07/28 09:54:35;;;;;;;8.35;4.80;;;24.80;79.00;;;;;;6984322;28;20429;-79
2022/07/28 09:57:57;;;;;;;7.10;4.88;;;24.80;78.80;;;;;;6970999;28;20425;-78
2022/07/28 10:01:21;;;;;;;7.05;4.70;;;24.80;78.90;;;;;;6971978;28;20425;-78
2022/07/28 10:04:43;;;;;;;6.80;4.55;;;24.80;79.00;;;;;;6988067;28;20832;-78
2022/07/28 10:08:06;;;;;;;6.60;4.53;;;25.00;78.60;;;;;;6999736;28;20439;-80
2022/07/28 10:11:30;;;;;;;8.13;4.22;;;25.00;77.90;;;;;;6999287;28;20452;-79
2022/07/28 10:14:54;;;;;;;7.82;4.10;;;25.10;77.00;;;;;;6999537;28;20463;-77
2022/07/28 10:18:18;;;;;;;6.57;4.22;;;25.10;75.60;;;;;;6998185;28;20470;-78
2022/07/28 10:21:43;;;;;;;6.23;3.80;;;25.20;75.90;;;;;;6999169;28;20435;-81
2022/07/28 10:25:10;;;;;;;7.63;4.17;;;25.30;75.10;;;;;;6999378;28;20419;-78
2022/07/28 10:28:36;;;;;;;7.18;3.83;;;25.50;75.10;;;;;;6998634;28;20435;-77
2022/07/28 10:32:04;;;;;;;5.80;3.80;;;25.50;75.00;;;;;;6999195;28;20427;-76
2022/07/28 10:35:28;;;;;;;6.70;4.00;;;25.70;73.90;;;;;;7004388;28;20444;-77
2022/07/28 10:38:51;;;;;;;6.50;3.90;;;25.70;74.00;;;;;;7009510;28;20435;-78
2022/07/28 10:42:15;;;;;;;6.53;3.83;;;25.90;74.10;;;;;;7001507;28;20431;-76
2022/07/28 10:45:38;;;;;;;6.43;3.95;;;25.80;73.70;;;;;;6988620;28;20431;-77
2022/07/28 10:49:01;;;;;;;6.20;3.87;;;25.80;73.20;;;;;;6977455;28;20945;-77
2022/07/28 10:52:26;;;;;;;5.73;3.60;;;25.90;72.50;;;;;;6970214;28;20789;-76
2022/07/28 10:55:53;;;;;;;6.77;3.70;;;25.90;72.00;;;;;;6971360;28;20432;-77
2022/07/28 11:00:00;;;;;;;6.00;3.63;;;26.10;72.10;;;;;;6972200;28;20804;-78
2022/07/28 11:03:39;;;;;;;6.55;3.55;;;26.10;71.30;;;;;;6971113;28;20444;-77
2022/07/28 11:07:10;;;;;;;7.10;3.30;;;26.20;71.50;;;;;;6970902;28;20464;-76
2022/07/28 11:10:46;;;;;;;7.07;3.50;;;26.30;70.30;;;;;;6969624;28;20566;-77
2022/07/28 11:14:34;;;;;;;7.70;3.43;;;26.30;68.70;;;;;;6969666;28;20504;-76
2022/07/28 11:18:07;;;;;;;5.53;3.42;;;26.30;68.80;;;;;;6969863;28;20475;-75
2022/07/28 11:21:29;;;;;;;6.82;3.50;;;26.40;68.50;;;;;;6997601;28;20928;-76
2022/07/28 11:25:17;;;;;;;6.87;3.40;;;26.50;67.60;;;;;;7000428;28;20450;-76
2022/07/28 11:29:20;;;;;;;7.00;3.40;;;26.50;67.20;;;;;;7016760;28;20447;-77
2022/07/28 11:32:57;;;;;;;7.28;3.25;;;26.70;67.30;;;;;;7023728;28;20427;-77
2022/07/28 11:36:19;;;;;;;5.43;3.30;;;26.80;67.30;;;;;;7026174;28;20411;-76
2022/07/28 11:39:42;;;;;;;6.00;3.15;;;27.00;67.10;;;;;;7027306;28;20407;-77
2022/07/28 11:43:38;;;;;;;6.50;3.20;;;27.30;67.10;;;;;;7026588;28;20447;-76
2022/07/28 11:47:17;;;;;;;7.20;3.17;;;27.30;64.70;;;;;;7008632;28;20435;-77
2022/07/28 11:50:39;;;;;;;5.95;3.05;;;27.50;63.90;;;;;;7014348;28;20419;-76
2022/07/28 11:54:02;;;;;;;5.57;3.20;;;27.60;64.20;;;;;;7017381;28;20479;-76
2022/07/28 11:57:27;;;;;;;6.22;3.17;;;27.80;62.80;;;;;;7010363;28;20427;-76
2022/07/28 12:00:49;;;;;;;6.80;3.28;;;27.90;63.30;;;;;;6997358;28;20424;-77
2022/07/28 12:04:14;;;;;;;6.47;3.10;;;27.90;62.10;;;;;;6997705;28;20423;-77
2022/07/28 12:07:40;;;;;;;6.83;3.17;;;28.00;62.30;;;;;;6996144;28;20706;-77
2022/07/28 12:11:02;;;;;;;7.20;3.20;;;28.00;62.80;;;;;;6979560;28;20425;-78
2022/07/28 12:14:27;;;;;;;5.93;3.10;;;27.90;62.20;;;;;;6973793;28;20436;-75
2022/07/28 12:17:50;;;;;;;5.90;3.17;;;28.10;62.80;;;;;;6941952;28;20467;-78
2022/07/28 12:21:13;;;;;;;5.20;3.10;;;28.10;62.20;;;;;;6946799;28;20446;-76
2022/07/28 12:24:38;;;;;;;5.93;3.10;;;28.10;61.60;;;;;;6959905;28;20431;-77
2022/07/28 12:28:16;;;;;;;6.88;3.20;;;28.10;62.00;;;;;;6993996;28;20966;-78
2022/07/28 12:31:41;;;;;;;5.82;3.08;;;28.10;61.00;;;;;;6963849;28;20455;-76
2022/07/28 12:35:03;;;;;;;6.40;3.25;;;28.30;62.10;;;;;;6973218;28;20417;-75
2022/07/28 12:38:28;;;;;;;6.28;3.20;;;28.40;60.90;;;;;;6972318;28;20429;-76
2022/07/28 12:42:02;;;;;;;5.47;3.10;;;28.40;61.10;;;;;;6968569;28;20428;-76
2022/07/28 12:45:26;;;;;;;6.85;3.45;;;28.30;60.90;;;;;;6968285;28;20536;-77
2022/07/28 12:48:49;;;;;;;6.47;3.17;;;28.50;60.00;;;;;;6967981;28;20930;-78
2022/07/28 12:52:18;;;;;;;6.88;3.35;;;28.50;60.40;;;;;;6967885;28;20429;-77
2022/07/28 12:55:43;;;;;;;5.63;3.08;;;28.50;61.00;;;;;;6967429;28;20437;-77
2022/07/28 12:59:08;;;;;;;7.07;3.40;;;28.60;60.50;;;;;;6968726;28;20425;-79
2022/07/28 13:02:36;;;;;;;6.70;3.00;;;28.90;60.60;;;;;;6967413;28;20799;-78
2022/07/28 13:06:10;;;;;;;6.55;3.17;;;29.00;59.50;;;;;;6967540;28;20498;-79
2022/07/28 13:09:32;;;;;;;5.20;3.22;;;29.00;59.30;;;;;;6967632;28;20918;-78
2022/07/28 13:13:03;;;;;;;5.70;3.15;;;29.20;58.10;;;;;;6979696;28;20903;-76
2022/07/28 13:16:28;;;;;;;7.82;3.20;;;29.50;58.40;;;;;;6967174;28;20421;-78
2022/07/28 13:19:50;;;;;;;6.10;3.30;;;29.50;58.40;;;;;;6968103;28;20436;-77
2022/07/28 13:23:12;;;;;;;5.95;3.10;;;29.70;57.40;;;;;;6967279;28;20798;-76
2022/07/28 13:26:35;;;;;;;5.70;3.13;;;29.70;56.90;;;;;;6967154;28;20475;-77
2022/07/28 13:29:59;;;;;;;6.38;3.25;;;30.00;56.90;;;;;;6969313;28;20437;-79
2022/07/28 13:33:21;;;;;;;5.85;3.40;;;30.20;56.30;;;;;;6967312;28;20433;-78
2022/07/28 13:36:43;;;;;;;7.85;3.70;;;30.30;56.10;;;;;;6968732;28;20772;-77
2022/07/28 13:40:08;;;;;;;7.55;3.88;;;30.20;55.80;;;;;;6971777;28;20456;-77
2022/07/28 13:43:30;;;;;;;5.88;3.33;;;30.30;55.30;;;;;;6974409;28;20536;-77
2022/07/28 13:46:54;;;;;;;6.65;3.45;;;30.40;55.00;;;;;;6967895;28;20440;-75
2022/07/28 13:50:16;;;;;;;6.23;3.40;;;30.50;55.20;;;;;;6967698;28;20429;-76
2022/07/28 13:53:39;;;;;;;6.60;3.60;;;30.60;54.10;;;;;;6953140;28;20433;-77
2022/07/28 13:57:01;;;;;;;6.32;3.38;;;30.80;54.20;;;;;;6956305;28;20438;-77
2022/07/28 14:00:24;;;;;;;5.03;3.38;;;31.10;53.90;;;;;;6968336;28;20452;-77
2022/07/28 14:03:47;;;;;;;6.13;3.10;;;31.30;52.80;;;;;;6957983;28;20785;-78
2022/07/28 14:07:09;;;;;;;8.30;4.32;;;31.60;55.30;;;;;;6962545;28;20908;-81
2022/07/28 14:10:31;;;;;;;7.82;3.95;;;31.60;53.60;;;;;;6953013;28;20429;-78
2022/07/28 14:13:54;;;;;;;6.95;4.70;;;31.40;52.80;;;;;;6969482;28;20433;-78
2022/07/28 14:17:21;;;;;;;7.70;3.70;;;31.40;52.50;;;;;;6968572;28;20437;-79
2022/07/28 14:20:44;;;;;;;7.53;4.07;;;31.20;52.60;;;;;;6964277;28;20433;-79
2022/07/28 14:24:07;;;;;;;8.90;3.90;;;31.30;52.60;;;;;;6964813;28;20440;-77
2022/07/28 14:27:29;;;;;;;7.38;4.45;;;31.30;52.00;;;;;;6945824;28;20458;-76
2022/07/28 14:30:52;;;;;;;7.95;4.43;;;31.40;52.20;;;;;;6976429;28;20431;-78
2022/07/28 14:34:14;;;;;;;6.47;4.10;;;31.60;51.90;;;;;;6999064;28;20446;-78
2022/07/28 14:37:37;;;;;;;5.70;3.40;;;31.80;51.70;;;;;;6976455;28;20875;-77
2022/07/28 14:40:59;;;;;;;6.63;3.27;;;31.80;51.80;;;;;;6975361;28;20440;-77
2022/07/28 14:44:22;;;;;;;6.50;3.27;;;31.90;50.80;;;;;;6995895;28;20734;-77
2022/07/28 14:47:44;;;;;;;5.43;3.30;;;31.90;50.40;;;;;;6968879;28;20491;-77
2022/07/28 14:51:06;;;;;;;6.22;3.28;;;32.00;50.80;;;;;;6976883;28;20427;-77
2022/07/28 14:54:29;;;;;;;6.37;3.10;;;32.10;51.10;;;;;;6994024;28;20437;-78
2022/07/28 14:57:52;;;;;;;5.85;3.00;;;32.10;50.30;;;;;;6987491;28;20428;-78
2022/07/28 15:01:14;;;;;;;5.93;3.30;;;32.10;50.70;;;;;;6982335;28;20431;-76
2022/07/28 15:04:36;;;;;;;7.78;3.25;;;32.20;50.60;;;;;;6990705;28;20536;-76
2022/07/28 15:07:58;;;;;;;6.35;3.15;;;32.20;50.90;;;;;;6984306;28;20513;-78
2022/07/28 15:11:22;;;;;;;6.00;3.30;;;32.30;50.70;;;;;;6979993;28;20524;-77
2022/07/28 15:14:44;;;;;;;5.07;3.10;;;32.40;50.30;;;;;;6982610;28;20832;-76
2022/07/28 15:18:06;;;;;;;5.75;3.35;;;32.40;50.60;;;;;;6981874;28;20435;-78
2022/07/28 15:21:28;;;;;;;6.05;3.10;;;32.50;50.40;;;;;;6986449;28;21107;-77
2022/07/28 15:24:51;;;;;;;6.60;3.00;;;32.60;49.70;;;;;;6975506;28;20538;-77
2022/07/28 15:28:14;;;;;;;5.70;3.05;;;32.50;49.40;;;;;;6983715;28;20443;-78
2022/07/28 15:31:36;;;;;;;6.30;3.10;;;32.60;49.60;;;;;;6977304;28;20436;-79
2022/07/28 15:34:59;;;;;;;7.00;3.20;;;32.60;49.50;;;;;;6989987;28;20427;-80
2022/07/28 15:38:21;;;;;;;6.00;3.25;;;32.40;49.60;;;;;;6987690;28;20458;-78
2022/07/28 15:41:45;;;;;;;5.55;3.20;;;32.30;49.60;;;;;;6986751;28;20444;-77
2022/07/28 15:45:10;;;;;;;7.57;3.38;;;32.30;49.90;;;;;;6985531;28;20431;-78
2022/07/28 15:48:33;;;;;;;5.95;3.08;;;32.40;49.20;;;;;;6984970;28;21026;-76
2022/07/28 15:51:55;;;;;;;7.28;3.13;;;32.30;48.80;;;;;;6982852;28;20431;-76
2022/07/28 15:55:17;;;;;;;5.57;2.90;;;32.10;48.80;;;;;;6976392;28;20435;-79
2022/07/28 15:58:39;;;;;;;6.45;3.17;;;32.20;49.10;;;;;;6978828;28;20976;-79
2022/07/28 16:02:03;;;;;;;5.83;3.27;;;32.40;49.20;;;;;;6988717;28;20431;-78
2022/07/28 16:05:25;;;;;;;6.38;3.13;;;32.20;49.60;;;;;;6982751;28;20578;-77
2022/07/28 16:08:48;;;;;;;7.07;3.05;;;32.30;49.70;;;;;;6973382;28;20443;-75
2022/07/28 16:12:10;;;;;;;6.97;3.07;;;32.20;51.00;;;;;;6975351;28;21124;-83
2022/07/28 16:15:33;;;;;;;6.07;3.00;;;32.20;50.90;;;;;;6970164;28;20437;-85
2022/07/28 16:18:57;;;;;;;6.90;3.00;;;32.20;50.70;;;;;;6978037;28;20431;-79
2022/07/28 16:22:20;;;;;;;5.63;3.15;;;32.40;51.10;;;;;;6981505;28;20454;-81
2022/07/28 16:25:42;;;;;;;6.30;2.90;;;32.50;49.70;;;;;;6966846;28;20464;-79
2022/07/28 16:29:04;;;;;;;5.38;2.90;;;32.50;49.10;;;;;;6975529;28;20501;-80
2022/07/28 16:32:26;;;;;;;7.68;4.65;;;32.20;49.40;;;;;;6972825;28;20567;-80
2022/07/28 16:35:49;;;;;;;7.35;3.60;;;31.90;49.10;;;;;;6973742;28;20442;-78
2022/07/28 16:39:12;;;;;;;7.72;2.90;;;32.00;49.50;;;;;;6975339;28;20439;-77
2022/07/28 16:42:37;;;;;;;5.53;2.70;;;32.00;49.50;;;;;;6973912;28;20434;-80
2022/07/28 16:46:02;;;;;;;6.00;2.87;;;32.00;49.60;;;;;;6976037;28;20447;-82
2022/07/28 16:49:24;;;;;;;5.97;2.90;;;32.00;49.20;;;;;;6975371;28;20445;-82
2022/07/28 16:52:48;;;;;;;5.70;2.70;;;31.80;49.90;;;;;;6976866;28;20433;-79
2022/07/28 16:56:16;;;;;;;5.40;2.88;;;31.40;49.70;;;;;;6970342;28;20459;-81
2022/07/28 16:59:38;;;;;;;5.60;3.00;;;31.20;49.70;;;;;;6976479;28;20438;-78
2022/07/28 17:03:00;;;;;;;5.32;2.92;;;31.20;49.50;;;;;;6975909;28;20467;-80
2022/07/28 17:06:22;;;;;;;5.75;2.90;;;31.10;49.60;;;;;;6973719;28;20473;-79
2022/07/28 17:09:46;;;;;;;5.70;2.88;;;31.00;49.60;;;;;;6973858;28;21022;-80
2022/07/28 17:13:10;;;;;;;5.68;2.90;;;31.20;50.30;;;;;;6973122;28;20506;-81
2022/07/28 17:16:33;;;;;;;6.47;2.83;;;31.30;49.30;;;;;;6974694;28;20550;-80
2022/07/28 17:19:55;;;;;;;7.18;2.80;;;31.30;49.80;;;;;;6974951;28;21102;-81
2022/07/28 17:23:17;;;;;;;5.07;2.80;;;31.20;49.90;;;;;;6991755;28;20444;-81
2022/07/28 17:26:40;;;;;;;5.30;2.70;;;31.10;49.80;;;;;;6993865;28;20442;-81
2022/07/28 17:30:03;;;;;;;5.60;2.60;;;31.00;49.30;;;;;;6981587;28;20501;-80
2022/07/28 17:33:25;;;;;;;6.67;2.80;;;30.80;49.10;;;;;;6979720;28;20483;-81
2022/07/28 17:36:49;;;;;;;6.80;2.75;;;30.80;49.90;;;;;;6979539;28;20522;-82
2022/07/28 17:40:13;;;;;;;6.53;2.90;;;30.70;50.50;;;;;;6980910;28;20437;-80
2022/07/28 17:43:36;;;;;;;5.82;2.90;;;30.60;50.30;;;;;;6970801;28;20457;-82